Bloomington の空港の天気 - METARとTAF

ミネアポリス・セントポール国際空港 ( KMSP / MSP ) - アメリカ ミネソタ州Bloomington
飛行場実況気象(Metar)
観測時間01/29 01:24 CST (01/29 07:24 UTC)
風向・風速東南東 3m/s
視程10km以上
天気現象
全天の8割程度の雲 雲底高度 730m
全天を覆う雲 雲底高度 980m
気温-12.8℃
湿度70%
気圧1021hPa
METARKMSP 290724Z 12005KT 10SM BKN024 OVC032 M13/M17 A3014 RMK AO2 T11281172 $
過去の天気等 Google飛行場航空写真 Wunderground天気予報

過去48時間のMETAR

飛行場予報(TAF)
発表時間: 1/28 23:20 CST (1/29 05:20 UTC)
予報対象時間: 29日0時 CST ~ 30日6時 CST
風向・風速不定 2m/s
視程10km以上
全天の4割程度の雲 雲底高度 1220m
29日2時 CST から
風向・風速南南東 3m/s
視程10km以上
全天の8割程度の雲 雲底高度 4570m
29日18時 CST から
風向・風速西 5m/s
視程10km以上
全天の8割程度の雲 雲底高度 1370m
29日21時 CST から
風向・風速北西 4m/s
視程10km以上
全天の8割程度の雲 雲底高度 760m
30日2時 CST から
風向・風速北北西 4m/s
視程10km以上
全天の8割程度の雲 雲底高度 1070m
30日4時 CST から
風向・風速北北西 3m/s
視程10km以上
全天の4割程度の雲 雲底高度 3660m
KMSP 290520Z 2906/3012 VRB03KT P6SM SCT040
FM290800 16006KT P6SM BKN150
FM300000 28009KT P6SM BKN045
FM300300 32007KT P6SM BKN025
FM300800 33008KT P6SM BKN035
FM301000 33006KT P6SM SCT120